createdAt,value
2023-05-07T00:02:10.086Z,2.30
2023-05-07T00:04:38.867Z,2.72
2023-05-07T00:07:06.727Z,3.50
2023-05-07T00:09:33.754Z,3.40
2023-05-07T00:12:00.837Z,3.80
2023-05-07T00:14:27.956Z,1.77
2023-05-07T00:16:55.077Z,1.77
2023-05-07T00:19:22.100Z,2.67
2023-05-07T00:21:49.170Z,1.80
2023-05-07T00:24:16.210Z,1.63
2023-05-07T00:26:43.267Z,2.42
2023-05-07T00:29:10.350Z,0.77
2023-05-07T00:31:37.424Z,1.20
2023-05-07T00:34:04.525Z,1.90
2023-05-07T00:36:31.621Z,1.15
2023-05-07T00:39:01.288Z,2.80
2023-05-07T00:41:28.285Z,2.33
2023-05-07T00:43:55.387Z,2.08
2023-05-07T00:46:22.743Z,2.70
2023-05-07T00:48:53.407Z,2.42
2023-05-07T00:51:21.307Z,2.22
2023-05-07T00:53:48.498Z,10.60
2023-05-07T00:56:15.654Z,4.03
2023-05-07T00:58:42.710Z,2.03
2023-05-07T01:01:09.841Z,3.50
2023-05-07T01:03:36.901Z,2.30
2023-05-07T01:06:06.052Z,3.28
2023-05-07T01:08:33.921Z,4.15
2023-05-07T01:11:01.440Z,1.60
2023-05-07T01:13:29.330Z,1.20
2023-05-07T01:15:56.446Z,2.03
2023-05-07T01:18:23.703Z,3.22
2023-05-07T01:20:51.045Z,2.22
2023-05-07T01:23:19.026Z,1.67
2023-05-07T01:25:56.094Z,1.10
2023-05-07T01:28:26.079Z,3.70
2023-05-07T01:31:02.951Z,2.55
2023-05-07T01:33:32.838Z,1.23
2023-05-07T01:36:03.251Z,2.22
2023-05-07T01:38:31.856Z,2.15
2023-05-07T01:40:59.490Z,1.98
2023-05-07T01:43:27.149Z,2.70
2023-05-07T01:45:54.804Z,2.38
2023-05-07T01:48:22.364Z,2.28
2023-05-07T01:50:50.114Z,2.70
2023-05-07T01:53:17.421Z,1.70
2023-05-07T01:55:44.502Z,2.58
2023-05-07T01:58:11.835Z,2.35
2023-05-07T02:00:38.878Z,3.75
2023-05-07T02:03:07.958Z,3.58
2023-05-07T02:05:42.551Z,2.30
2023-05-07T02:08:19.795Z,2.83
2023-05-07T02:10:46.931Z,3.00
2023-05-07T02:13:13.978Z,2.22
2023-05-07T02:15:41.034Z,1.83
2023-05-07T02:18:10.141Z,2.17
2023-05-07T02:20:38.200Z,3.90
2023-05-07T02:23:05.253Z,1.90
2023-05-07T02:25:32.317Z,1.48
2023-05-07T02:27:59.874Z,2.28
2023-05-07T02:30:47.156Z,1.33
2023-05-07T02:33:15.192Z,1.83
2023-05-07T02:35:42.449Z,2.78
2023-05-07T02:38:11.848Z,2.25
2023-05-07T02:40:40.928Z,3.78
2023-05-07T02:43:08.182Z,2.65
2023-05-07T02:45:36.152Z,2.00
2023-05-07T02:48:05.235Z,1.25
2023-05-07T02:50:33.437Z,1.20
2023-05-07T02:53:00.636Z,2.17
2023-05-07T02:55:27.823Z,2.63
2023-05-07T02:57:54.849Z,1.60
2023-05-07T03:00:22.339Z,3.25
2023-05-07T03:03:02.354Z,2.03
2023-05-07T03:05:29.777Z,1.83
2023-05-07T03:07:56.760Z,2.55
2023-05-07T03:10:23.827Z,2.33
2023-05-07T03:12:50.915Z,1.80
2023-05-07T03:15:18.803Z,2.53
2023-05-07T03:17:45.842Z,2.45
2023-05-07T03:20:13.345Z,2.25
2023-05-07T03:22:41.856Z,1.45
2023-05-07T03:25:09.731Z,1.95
2023-05-07T03:27:36.717Z,1.85
2023-05-07T03:30:04.686Z,3.83
2023-05-07T03:32:31.852Z,2.58
2023-05-07T03:34:59.164Z,3.65
2023-05-07T03:37:26.542Z,3.67
2023-05-07T03:39:53.978Z,3.30
2023-05-07T03:42:21.270Z,3.72
2023-05-07T03:44:51.253Z,3.72
2023-05-07T03:47:18.974Z,2.53
2023-05-07T03:49:47.522Z,2.05
2023-05-07T03:52:15.583Z,5.05
2023-05-07T03:54:42.831Z,3.17
2023-05-07T03:57:12.398Z,1.63
2023-05-07T03:59:40.026Z,3.20
2023-05-07T04:02:08.725Z,2.50
2023-05-07T04:04:35.852Z,4.40
2023-05-07T04:07:02.822Z,3.55
2023-05-07T04:09:31.637Z,4.63
2023-05-07T04:11:58.758Z,2.28
2023-05-07T04:14:25.846Z,3.08
2023-05-07T04:16:53.372Z,6.30
2023-05-07T04:19:20.627Z,1.88
2023-05-07T04:21:50.876Z,4.22
2023-05-07T04:24:18.062Z,1.83
2023-05-07T04:26:46.135Z,2.13
2023-05-07T04:29:13.265Z,3.22
2023-05-07T04:31:40.508Z,4.22
2023-05-07T04:34:08.482Z,6.30
2023-05-07T04:36:35.568Z,3.97
2023-05-07T04:39:08.094Z,4.80
2023-05-07T04:41:37.652Z,3.78
2023-05-07T04:44:07.000Z,6.20
2023-05-07T04:46:34.653Z,2.92
2023-05-07T04:49:01.701Z,2.83
2023-05-07T04:51:29.125Z,4.28
2023-05-07T04:53:56.429Z,4.50
2023-05-07T04:56:23.543Z,5.40
2023-05-07T04:58:50.605Z,4.55
2023-05-07T05:01:20.812Z,2.22
2023-05-07T05:03:48.456Z,3.25
2023-05-07T05:06:15.537Z,3.13
2023-05-07T05:08:42.685Z,1.98
2023-05-07T05:11:11.027Z,2.95
2023-05-07T05:13:38.261Z,2.63
2023-05-07T05:16:12.004Z,4.57
2023-05-07T05:18:39.913Z,2.17
2023-05-07T05:21:06.936Z,2.58
2023-05-07T05:23:34.490Z,2.83
2023-05-07T05:26:01.626Z,1.85
2023-05-07T05:28:32.338Z,1.63
2023-05-07T05:30:59.576Z,1.60
2023-05-07T05:33:28.557Z,2.75
2023-05-07T05:36:00.156Z,1.75
2023-05-07T05:38:27.196Z,2.00
2023-05-07T05:40:56.664Z,4.47
2023-05-07T05:43:24.242Z,3.85
2023-05-07T05:45:51.538Z,3.20
2023-05-07T05:48:18.765Z,1.90
2023-05-07T05:50:46.410Z,4.90
2023-05-07T05:53:14.789Z,2.83
2023-05-07T05:55:42.745Z,2.45
2023-05-07T05:58:10.577Z,1.42
2023-05-07T06:00:41.264Z,2.38
2023-05-07T06:03:08.430Z,3.08
2023-05-07T06:05:36.549Z,2.03
2023-05-07T06:08:03.726Z,2.10
2023-05-07T06:10:33.730Z,2.35
2023-05-07T06:13:01.425Z,2.72
2023-05-07T06:15:29.563Z,3.85
2023-05-07T06:17:58.741Z,2.55
2023-05-07T06:20:25.931Z,4.53
2023-05-07T06:22:53.030Z,3.97
2023-05-07T06:25:20.327Z,3.53
2023-05-07T06:27:47.662Z,2.40
2023-05-07T06:30:14.857Z,2.67
2023-05-07T06:32:42.481Z,1.80
2023-05-07T06:35:10.449Z,3.92
2023-05-07T06:37:40.627Z,4.95
2023-05-07T06:40:09.591Z,4.55
2023-05-07T06:42:39.407Z,5.05
2023-05-07T06:45:23.597Z,4.28
2023-05-07T06:47:50.897Z,2.72
2023-05-07T06:50:18.224Z,3.65
2023-05-07T06:52:45.777Z,2.35
2023-05-07T06:55:12.858Z,5.55
2023-05-07T06:57:40.205Z,2.60
2023-05-07T07:00:10.289Z,4.07
2023-05-07T07:02:46.315Z,5.25
2023-05-07T07:05:15.124Z,2.30
2023-05-07T07:07:42.112Z,4.10
2023-05-07T07:10:09.852Z,1.90
2023-05-07T07:12:37.047Z,4.97
2023-05-07T07:15:04.408Z,3.58
2023-05-07T07:17:31.555Z,4.22
2023-05-07T07:19:58.611Z,5.85
2023-05-07T07:22:25.591Z,3.15
2023-05-07T07:24:52.894Z,4.13
2023-05-07T07:27:19.981Z,3.55
2023-05-07T07:29:47.044Z,7.15
2023-05-07T07:32:14.093Z,5.20
2023-05-07T07:34:41.620Z,3.33
2023-05-07T07:37:09.506Z,7.53
2023-05-07T07:39:40.663Z,6.72
2023-05-07T07:42:09.074Z,5.07
2023-05-07T07:44:36.280Z,4.82
2023-05-07T07:47:07.883Z,4.75
2023-05-07T07:49:36.498Z,2.60
2023-05-07T07:52:06.476Z,3.03
2023-05-07T07:54:36.274Z,4.47
2023-05-07T07:57:04.536Z,4.88
2023-05-07T07:59:33.688Z,3.70
2023-05-07T08:02:00.819Z,1.85
2023-05-07T08:04:29.940Z,2.92
2023-05-07T08:06:58.669Z,3.95
2023-05-07T08:09:26.490Z,3.38
2023-05-07T08:11:55.001Z,2.17
2023-05-07T08:14:22.172Z,2.45
2023-05-07T08:16:49.420Z,2.63
2023-05-07T08:19:16.469Z,2.17
2023-05-07T08:21:44.083Z,3.10
2023-05-07T08:24:12.901Z,3.78
2023-05-07T08:26:41.069Z,2.28
2023-05-07T08:29:09.755Z,2.15
2023-05-07T08:31:36.959Z,2.05
2023-05-07T08:34:10.440Z,2.15
2023-05-07T08:36:42.950Z,2.45
2023-05-07T08:39:11.882Z,2.33
2023-05-07T08:41:39.049Z,2.67
2023-05-07T08:44:12.564Z,2.03
2023-05-07T08:46:41.401Z,3.47
2023-05-07T08:49:09.053Z,2.38
2023-05-07T08:51:37.111Z,5.72
2023-05-07T08:54:04.744Z,4.82
2023-05-07T08:56:34.575Z,6.18
2023-05-07T08:59:02.097Z,6.85
2023-05-07T09:01:30.553Z,3.88
2023-05-07T09:03:59.328Z,6.70
2023-05-07T09:06:28.683Z,4.38
2023-05-07T09:08:56.660Z,6.38
2023-05-07T09:11:27.035Z,6.13
2023-05-07T09:13:57.396Z,6.63
2023-05-07T09:16:26.587Z,8.00
2023-05-07T09:18:55.756Z,7.85
2023-05-07T09:21:24.188Z,6.55
2023-05-07T09:23:55.850Z,5.45
2023-05-07T09:26:29.350Z,4.35
2023-05-07T09:28:56.715Z,4.25
2023-05-07T09:31:27.217Z,3.58
2023-05-07T09:33:57.019Z,5.18
2023-05-07T09:36:28.489Z,6.82
2023-05-07T09:38:57.626Z,4.78
2023-05-07T09:41:24.825Z,5.03
2023-05-07T09:44:02.869Z,3.33
2023-05-07T09:46:39.406Z,8.93
2023-05-07T09:49:24.465Z,8.63
2023-05-07T09:51:58.118Z,16.33
2023-05-07T09:54:28.478Z,6.38
2023-05-07T09:56:57.972Z,5.13
2023-05-07T09:59:30.176Z,7.35
2023-05-07T10:02:00.703Z,6.68
2023-05-07T10:04:30.157Z,7.45
2023-05-07T10:06:57.667Z,6.15
2023-05-07T10:09:27.059Z,7.50
2023-05-07T10:11:54.896Z,6.82
2023-05-07T10:14:23.196Z,6.50
2023-05-07T10:16:51.012Z,14.18
2023-05-07T10:19:20.483Z,6.57
2023-05-07T10:22:05.820Z,8.73
2023-05-07T10:24:37.793Z,5.75
2023-05-07T10:27:13.792Z,3.85
2023-05-07T10:30:16.431Z,4.18
2023-05-07T10:32:48.365Z,7.47
2023-05-07T10:35:27.074Z,4.28
2023-05-07T10:37:55.071Z,3.83
2023-05-07T10:40:23.625Z,3.20
2023-05-07T10:43:03.685Z,6.30
2023-05-07T10:45:36.283Z,3.17
2023-05-07T10:48:28.624Z,3.47
2023-05-07T10:51:22.697Z,3.28
2023-05-07T10:54:14.066Z,2.95
2023-05-07T10:56:48.864Z,2.25
2023-05-07T10:59:24.828Z,3.60
2023-05-07T11:02:00.373Z,2.60
2023-05-07T11:04:39.992Z,1.67
2023-05-07T11:07:31.417Z,2.28
2023-05-07T11:10:05.908Z,1.13
2023-05-07T11:13:09.468Z,4.50
2023-05-07T11:15:49.414Z,1.58
2023-05-07T11:18:51.244Z,2.97
2023-05-07T11:21:41.101Z,1.80
2023-05-07T11:24:27.052Z,3.50
2023-05-07T11:27:01.451Z,2.80
2023-05-07T11:29:31.954Z,2.08
2023-05-07T11:32:07.845Z,2.40
2023-05-07T11:34:45.762Z,2.40
2023-05-07T11:37:17.716Z,2.13
2023-05-07T11:40:02.905Z,4.00
2023-05-07T11:42:30.585Z,3.05
2023-05-07T11:44:58.300Z,2.63
2023-05-07T11:47:26.447Z,4.30
2023-05-07T11:49:55.974Z,3.28
2023-05-07T11:52:24.518Z,5.28
2023-05-07T11:54:56.215Z,3.08
2023-05-07T11:57:24.725Z,3.65
2023-05-07T12:00:05.715Z,3.50
2023-05-07T12:02:43.267Z,3.92
2023-05-07T12:05:11.089Z,2.78
2023-05-07T12:07:38.577Z,6.25
2023-05-07T12:10:07.373Z,3.85
2023-05-07T12:12:43.150Z,3.00
2023-05-07T12:15:11.619Z,2.95
2023-05-07T12:17:39.381Z,3.83
2023-05-07T12:20:08.355Z,4.45
2023-05-07T12:22:35.757Z,3.47
2023-05-07T12:25:03.631Z,2.58
2023-05-07T12:27:31.718Z,4.95
2023-05-07T12:30:00.385Z,3.55
2023-05-07T12:32:27.532Z,4.22
2023-05-07T12:34:54.595Z,4.60
2023-05-07T12:37:28.576Z,5.55
2023-05-07T12:40:08.769Z,3.60
2023-05-07T12:42:41.132Z,3.03
2023-05-07T12:45:17.821Z,6.10
2023-05-07T12:47:46.421Z,4.40
2023-05-07T12:50:17.635Z,3.40
2023-05-07T12:52:46.822Z,3.95
2023-05-07T12:55:16.412Z,4.03
2023-05-07T12:57:46.568Z,6.70
2023-05-07T13:00:14.315Z,5.03
2023-05-07T13:02:45.700Z,4.55
2023-05-07T13:05:13.281Z,3.78
2023-05-07T13:07:41.804Z,4.60
2023-05-07T13:10:09.650Z,4.32
2023-05-07T13:12:37.075Z,5.28
2023-05-07T13:15:04.444Z,8.43
2023-05-07T13:17:32.435Z,4.82
2023-05-07T13:19:59.793Z,6.15
2023-05-07T13:22:26.813Z,5.35
2023-05-07T13:24:53.786Z,3.05
2023-05-07T13:27:21.688Z,7.57
2023-05-07T13:29:48.727Z,4.68
2023-05-07T13:32:16.026Z,6.00
2023-05-07T13:34:43.146Z,3.75
2023-05-07T13:37:11.621Z,3.92
2023-05-07T13:39:39.182Z,4.38
2023-05-07T13:42:06.329Z,3.20
2023-05-07T13:44:33.356Z,3.25
2023-05-07T13:47:00.352Z,1.80
2023-05-07T13:49:27.393Z,3.03
2023-05-07T13:51:54.368Z,2.42
2023-05-07T13:54:21.876Z,2.67
2023-05-07T13:56:48.976Z,2.30
2023-05-07T13:59:16.748Z,1.75
2023-05-07T14:01:43.827Z,3.25
2023-05-07T14:04:10.951Z,2.65
2023-05-07T14:06:37.939Z,2.15
2023-05-07T14:09:05.211Z,2.30
2023-05-07T14:11:33.868Z,1.35
2023-05-07T14:14:01.776Z,1.15
2023-05-07T14:16:28.879Z,1.23
2023-05-07T14:18:57.987Z,1.40
2023-05-07T14:21:25.364Z,2.63
2023-05-07T14:23:52.380Z,2.38
2023-05-07T14:26:20.130Z,1.58
2023-05-07T14:28:47.594Z,2.85
2023-05-07T14:31:14.676Z,1.98
2023-05-07T14:33:42.353Z,1.48
2023-05-07T14:36:09.491Z,1.30
2023-05-07T14:38:36.800Z,1.38
2023-05-07T14:41:04.326Z,1.58
2023-05-07T14:43:31.309Z,2.95
2023-05-07T14:45:58.302Z,2.75
2023-05-07T14:48:25.427Z,1.98
2023-05-07T14:50:52.418Z,2.42
2023-05-07T14:53:19.465Z,2.42
2023-05-07T14:55:46.820Z,2.95
2023-05-07T14:58:13.962Z,3.40
2023-05-07T15:00:40.983Z,4.60
2023-05-07T15:03:10.402Z,4.85
2023-05-07T15:05:38.828Z,6.65
2023-05-07T15:08:06.388Z,4.57
2023-05-07T15:10:41.752Z,9.02
2023-05-07T15:13:16.038Z,6.55
2023-05-07T15:15:45.162Z,10.50
2023-05-07T15:18:12.406Z,6.18
2023-05-07T15:20:40.072Z,7.22
2023-05-07T15:23:10.949Z,4.55
2023-05-07T15:25:39.160Z,5.20
2023-05-07T15:28:06.647Z,8.93
2023-05-07T15:30:34.351Z,10.25
2023-05-07T15:33:03.495Z,8.70
2023-05-07T15:35:30.954Z,14.95
2023-05-07T15:37:58.534Z,9.73
2023-05-07T15:40:25.803Z,10.85
2023-05-07T15:42:57.039Z,12.82
2023-05-07T15:45:24.893Z,13.55
2023-05-07T15:47:52.000Z,17.95
2023-05-07T15:50:19.295Z,11.20
2023-05-07T15:52:47.513Z,16.52
2023-05-07T15:55:15.168Z,17.45
2023-05-07T15:57:42.207Z,11.93
2023-05-07T16:00:12.469Z,13.32
2023-05-07T16:02:39.974Z,13.82
2023-05-07T16:05:10.613Z,11.38
2023-05-07T16:07:38.258Z,20.40
2023-05-07T16:10:06.397Z,13.52
2023-05-07T16:12:33.437Z,15.85
2023-05-07T16:15:01.047Z,14.90
2023-05-07T16:17:28.233Z,11.70
2023-05-07T16:19:55.341Z,8.48
2023-05-07T16:22:22.746Z,12.27
2023-05-07T16:24:49.735Z,14.68
2023-05-07T16:27:16.871Z,7.78
2023-05-07T16:29:43.891Z,9.15
2023-05-07T16:32:11.061Z,11.07
2023-05-07T16:34:38.096Z,21.13
2023-05-07T16:37:05.758Z,22.48
2023-05-07T16:39:32.820Z,10.13
2023-05-07T16:41:59.828Z,14.68
2023-05-07T16:44:26.863Z,14.10
2023-05-07T16:46:53.844Z,14.40
2023-05-07T16:49:20.881Z,12.38
2023-05-07T16:51:47.975Z,10.65
2023-05-07T16:54:14.935Z,9.68
2023-05-07T16:56:42.911Z,14.63
2023-05-07T16:59:10.020Z,16.33
2023-05-07T17:01:37.111Z,15.80
2023-05-07T17:04:04.454Z,12.80
2023-05-07T17:06:31.947Z,10.93
2023-05-07T17:08:58.952Z,9.80
2023-05-07T17:11:31.039Z,14.98
2023-05-07T17:13:58.107Z,11.05
2023-05-07T17:16:25.248Z,14.55
2023-05-07T17:18:53.148Z,9.80
2023-05-07T17:21:20.170Z,15.40
2023-05-07T17:23:47.196Z,13.63
2023-05-07T17:26:17.684Z,20.02
2023-05-07T17:28:44.728Z,16.50
2023-05-07T17:31:11.901Z,14.90
2023-05-07T17:33:39.076Z,15.38
2023-05-07T17:36:08.600Z,9.52
2023-05-07T17:38:35.716Z,11.57
2023-05-07T17:41:03.016Z,7.90
2023-05-07T17:43:30.070Z,16.02
2023-05-07T17:45:57.091Z,11.57
2023-05-07T17:48:27.289Z,11.55
2023-05-07T17:50:54.344Z,19.33
2023-05-07T17:53:24.222Z,16.95
2023-05-07T17:55:52.677Z,10.90
2023-05-07T17:58:19.678Z,16.45
2023-05-07T18:00:46.647Z,16.30
2023-05-07T18:03:13.677Z,9.02
2023-05-07T18:05:41.006Z,9.65
2023-05-07T18:08:08.185Z,10.80
2023-05-07T18:10:35.417Z,9.00
2023-05-07T18:13:02.428Z,7.70
2023-05-07T18:15:29.526Z,16.92
2023-05-07T18:17:56.616Z,15.27
2023-05-07T18:20:23.815Z,12.18
2023-05-07T18:22:51.706Z,9.90
2023-05-07T18:25:18.868Z,12.32
2023-05-07T18:27:45.870Z,10.77
2023-05-07T18:30:13.397Z,11.95
2023-05-07T18:32:40.744Z,12.63
2023-05-07T18:35:08.291Z,10.98
2023-05-07T18:37:35.516Z,12.10
2023-05-07T18:43:49.898Z,25.90
2023-05-07T18:46:16.881Z,15.70
2023-05-07T18:48:43.948Z,13.65
2023-05-07T18:51:12.740Z,14.27
2023-05-07T18:53:40.409Z,11.77
2023-05-07T18:56:08.835Z,14.38
2023-05-07T18:58:36.083Z,8.90
2023-05-07T19:01:08.250Z,9.02
2023-05-07T19:03:36.128Z,14.77
2023-05-07T19:06:03.368Z,9.00
2023-05-07T19:08:30.489Z,9.73
2023-05-07T19:10:58.129Z,13.75
2023-05-07T19:13:27.536Z,7.55
2023-05-07T19:15:55.159Z,11.25
2023-05-07T19:18:22.443Z,8.20
2023-05-07T19:20:52.059Z,8.23
2023-05-07T19:23:21.676Z,8.70
2023-05-07T19:25:49.053Z,13.90
2023-05-07T19:28:16.877Z,7.20
2023-05-07T19:35:02.767Z,9.07
2023-05-07T19:37:30.255Z,11.27
2023-05-07T19:39:57.443Z,12.55
2023-05-07T19:42:24.489Z,17.02
2023-05-07T19:44:51.478Z,13.15
2023-05-07T19:47:18.798Z,13.15
2023-05-07T19:49:45.874Z,13.23
2023-05-07T19:52:12.930Z,6.63
2023-05-07T19:54:39.964Z,8.75
2023-05-07T19:57:07.039Z,5.85
2023-05-07T19:59:34.527Z,6.95
2023-05-07T20:02:01.592Z,7.70
2023-05-07T20:04:32.997Z,5.30
2023-05-07T20:07:00.169Z,11.10
2023-05-07T20:09:27.183Z,15.55
2023-05-07T20:11:54.245Z,9.95
2023-05-07T20:14:21.334Z,9.07
2023-05-07T20:16:48.564Z,7.20
2023-05-07T20:19:15.589Z,5.07
2023-05-07T20:21:42.736Z,8.32
2023-05-07T20:24:09.756Z,7.80
2023-05-07T20:26:36.966Z,7.18
2023-05-07T20:29:04.308Z,5.47
2023-05-07T20:31:32.421Z,9.48
2023-05-07T20:33:59.685Z,8.05
2023-05-07T20:36:26.939Z,6.07
2023-05-07T20:38:54.289Z,8.77
2023-05-07T20:41:21.904Z,11.52
2023-05-07T20:43:48.964Z,5.90
2023-05-07T20:46:16.011Z,6.40
2023-05-07T20:48:43.363Z,7.47
2023-05-07T20:51:13.665Z,4.25
2023-05-07T20:53:40.880Z,6.05
2023-05-07T20:56:07.872Z,4.68
2023-05-07T20:58:34.889Z,6.35
2023-05-07T21:01:04.129Z,3.85
2023-05-07T21:03:31.342Z,8.00
2023-05-07T21:06:00.495Z,8.82
2023-05-07T21:08:27.739Z,8.18
2023-05-07T21:10:55.346Z,5.93
2023-05-07T21:13:23.183Z,4.57
2023-05-07T21:15:50.705Z,7.63
2023-05-07T21:18:19.035Z,4.22
2023-05-07T21:20:46.343Z,3.20
2023-05-07T21:23:13.317Z,6.57
2023-05-07T21:25:41.477Z,5.88
2023-05-07T21:28:09.487Z,7.93
2023-05-07T21:30:37.244Z,6.45
2023-05-07T21:33:06.940Z,4.97
2023-05-07T21:35:35.931Z,5.25
2023-05-07T21:38:03.280Z,5.82
2023-05-07T21:40:30.395Z,3.60
2023-05-07T21:42:58.939Z,7.10
2023-05-07T21:45:26.293Z,4.70
2023-05-07T21:47:53.392Z,5.63
2023-05-07T21:50:20.738Z,5.85
2023-05-07T21:52:48.391Z,5.47
2023-05-07T21:55:17.453Z,4.78
2023-05-07T21:57:50.890Z,6.63
2023-05-07T22:00:25.056Z,4.78
2023-05-07T22:02:52.194Z,3.90
2023-05-07T22:05:19.361Z,8.60
2023-05-07T22:07:46.365Z,4.10
2023-05-07T22:10:13.705Z,6.00
2023-05-07T22:12:44.003Z,5.70
2023-05-07T22:15:11.499Z,4.80
2023-05-07T22:17:38.489Z,3.72
2023-05-07T22:20:06.555Z,5.40
2023-05-07T22:22:33.546Z,7.20
2023-05-07T22:25:00.509Z,4.25
2023-05-07T22:27:27.497Z,4.78
2023-05-07T22:29:56.105Z,3.63
2023-05-07T22:32:23.082Z,5.68
2023-05-07T22:34:50.061Z,2.70
2023-05-07T22:37:17.046Z,2.35
2023-05-07T22:39:44.046Z,2.35
2023-05-07T22:42:11.005Z,5.55
2023-05-07T22:44:38.064Z,4.20
2023-05-07T22:47:05.093Z,5.13
2023-05-07T22:49:34.966Z,3.38
2023-05-07T22:52:02.351Z,8.23
2023-05-07T22:54:31.398Z,4.22
2023-05-07T22:56:59.357Z,3.80
2023-05-07T22:59:26.522Z,9.05
2023-05-07T23:04:20.879Z,2.05
2023-05-07T23:06:48.067Z,4.53
2023-05-07T23:09:15.589Z,5.43
2023-05-07T23:11:43.258Z,4.63
2023-05-07T23:14:10.322Z,2.80
2023-05-07T23:16:37.351Z,15.55
2023-05-07T23:19:04.366Z,7.22
2023-05-07T23:21:31.380Z,6.70
2023-05-07T23:23:58.449Z,5.43
2023-05-07T23:26:31.256Z,5.75
2023-05-07T23:28:58.364Z,6.28
2023-05-07T23:31:25.414Z,4.80
2023-05-07T23:33:52.445Z,4.53
2023-05-07T23:36:19.515Z,18.35
2023-05-07T23:38:46.554Z,6.07
2023-05-07T23:41:14.876Z,6.53
2023-05-07T23:43:41.898Z,3.58
2023-05-07T23:46:08.929Z,2.70
2023-05-07T23:48:36.003Z,2.65
2023-05-07T23:51:03.434Z,2.60
2023-05-07T23:53:30.713Z,2.95
2023-05-07T23:55:57.814Z,9.23
2023-05-07T23:58:25.321Z,2.58
